sensor_id;sensor_type;location;lat;lon;timestamp;temperature;humidity
48744;DHT22;34538;48.836;9.174;2023-10-08T00:00:44;12.90;99.90
48744;DHT22;34538;48.836;9.174;2023-10-08T00:03:13;12.90;99.90
48744;DHT22;34538;48.836;9.174;2023-10-08T00:05:41;12.90;99.90
48744;DHT22;34538;48.836;9.174;2023-10-08T00:08:08;12.80;99.90
48744;DHT22;34538;48.836;9.174;2023-10-08T00:10:36;12.90;99.90
48744;DHT22;34538;48.836;9.174;2023-10-08T00:13:04;12.90;99.90
48744;DHT22;34538;48.836;9.174;2023-10-08T00:15:34;12.90;99.90
48744;DHT22;34538;48.836;9.174;2023-10-08T00:18:03;12.80;99.90
48744;DHT22;34538;48.836;9.174;2023-10-08T00:20:32;12.80;99.90
48744;DHT22;34538;48.836;9.174;2023-10-08T00:23:08;12.80;99.90
48744;DHT22;34538;48.836;9.174;2023-10-08T00:25:36;12.80;99.90
48744;DHT22;34538;48.836;9.174;2023-10-08T00:28:08;12.80;99.90
48744;DHT22;34538;48.836;9.174;2023-10-08T00:30:39;12.80;99.90
48744;DHT22;34538;48.836;9.174;2023-10-08T00:33:08;12.90;99.90
48744;DHT22;34538;48.836;9.174;2023-10-08T00:35:38;12.90;99.90
48744;DHT22;34538;48.836;9.174;2023-10-08T00:38:06;12.90;99.90
48744;DHT22;34538;48.836;9.174;2023-10-08T00:40:41;12.90;99.90
48744;DHT22;34538;48.836;9.174;2023-10-08T00:43:29;12.90;99.90
48744;DHT22;34538;48.836;9.174;2023-10-08T00:45:58;12.90;99.90
48744;DHT22;34538;48.836;9.174;2023-10-08T00:48:27;13.00;99.90
48744;DHT22;34538;48.836;9.174;2023-10-08T00:51:00;13.00;99.90
48744;DHT22;34538;48.836;9.174;2023-10-08T00:53:40;13.00;99.90
48744;DHT22;34538;48.836;9.174;2023-10-08T00:56:09;13.10;99.90
48744;DHT22;34538;48.836;9.174;2023-10-08T00:58:40;13.00;99.90
48744;DHT22;34538;48.836;9.174;2023-10-08T01:01:11;13.10;99.90
48744;DHT22;34538;48.836;9.174;2023-10-08T01:03:43;13.10;99.90
48744;DHT22;34538;48.836;9.174;2023-10-08T01:06:11;13.00;99.90
48744;DHT22;34538;48.836;9.174;2023-10-08T01:08:41;13.00;99.90
48744;DHT22;34538;48.836;9.174;2023-10-08T01:11:19;13.00;99.90
48744;DHT22;34538;48.836;9.174;2023-10-08T01:13:48;13.00;99.90
48744;DHT22;34538;48.836;9.174;2023-10-08T01:16:15;13.00;99.90
48744;DHT22;34538;48.836;9.174;2023-10-08T01:18:45;12.90;99.90
48744;DHT22;34538;48.836;9.174;2023-10-08T01:21:17;12.90;99.90
48744;DHT22;34538;48.836;9.174;2023-10-08T01:24:01;12.80;99.90
48744;DHT22;34538;48.836;9.174;2023-10-08T01:26:31;12.70;99.90
48744;DHT22;34538;48.836;9.174;2023-10-08T01:28:58;12.70;99.90
48744;DHT22;34538;48.836;9.174;2023-10-08T01:31:28;12.60;99.90
48744;DHT22;34538;48.836;9.174;2023-10-08T01:33:57;12.60;99.90
48744;DHT22;34538;48.836;9.174;2023-10-08T01:36:24;12.60;99.90
48744;DHT22;34538;48.836;9.174;2023-10-08T01:38:51;12.60;99.90
48744;DHT22;34538;48.836;9.174;2023-10-08T01:41:21;12.50;99.90
48744;DHT22;34538;48.836;9.174;2023-10-08T01:43:56;12.40;99.90
48744;DHT22;34538;48.836;9.174;2023-10-08T01:46:24;12.40;99.90
48744;DHT22;34538;48.836;9.174;2023-10-08T01:48:52;12.40;99.90
48744;DHT22;34538;48.836;9.174;2023-10-08T01:51:29;12.40;99.90
48744;DHT22;34538;48.836;9.174;2023-10-08T01:54:03;12.30;99.90
48744;DHT22;34538;48.836;9.174;2023-10-08T01:56:39;12.30;99.90
48744;DHT22;34538;48.836;9.174;2023-10-08T01:59:08;12.20;99.90
48744;DHT22;34538;48.836;9.174;2023-10-08T02:01:36;12.20;99.90
48744;DHT22;34538;48.836;9.174;2023-10-08T02:04:05;12.10;99.90
48744;DHT22;34538;48.836;9.174;2023-10-08T02:06:33;12.10;99.90
48744;DHT22;34538;48.836;9.174;2023-10-08T02:09:00;12.00;99.90
48744;DHT22;34538;48.836;9.174;2023-10-08T02:11:40;12.00;99.90
48744;DHT22;34538;48.836;9.174;2023-10-08T02:14:08;11.90;99.90
48744;DHT22;34538;48.836;9.174;2023-10-08T02:16:36;11.90;99.90
48744;DHT22;34538;48.836;9.174;2023-10-08T02:19:03;11.80;99.90
48744;DHT22;34538;48.836;9.174;2023-10-08T02:21:32;11.80;99.90
48744;DHT22;34538;48.836;9.174;2023-10-08T02:23:59;11.70;99.90
48744;DHT22;34538;48.836;9.174;2023-10-08T02:26:28;11.70;99.90
48744;DHT22;34538;48.836;9.174;2023-10-08T02:28:57;11.70;99.90
48744;DHT22;34538;48.836;9.174;2023-10-08T02:31:26;11.60;99.90
48744;DHT22;34538;48.836;9.174;2023-10-08T02:33:54;11.50;99.90
48744;DHT22;34538;48.836;9.174;2023-10-08T02:36:24;11.50;99.90
48744;DHT22;34538;48.836;9.174;2023-10-08T02:38:51;11.50;99.90
48744;DHT22;34538;48.836;9.174;2023-10-08T02:41:20;11.40;99.90
48744;DHT22;34538;48.836;9.174;2023-10-08T02:43:50;11.40;99.90
48744;DHT22;34538;48.836;9.174;2023-10-08T02:46:17;11.30;99.90
48744;DHT22;34538;48.836;9.174;2023-10-08T02:48:45;11.30;99.90
48744;DHT22;34538;48.836;9.174;2023-10-08T02:51:12;11.30;99.90
48744;DHT22;34538;48.836;9.174;2023-10-08T02:53:40;11.20;99.90
48744;DHT22;34538;48.836;9.174;2023-10-08T02:56:09;11.10;99.90
48744;DHT22;34538;48.836;9.174;2023-10-08T02:58:39;11.10;99.90
48744;DHT22;34538;48.836;9.174;2023-10-08T03:01:07;11.00;99.90
48744;DHT22;34538;48.836;9.174;2023-10-08T03:03:39;11.00;99.90
48744;DHT22;34538;48.836;9.174;2023-10-08T03:06:09;10.90;99.90
48744;DHT22;34538;48.836;9.174;2023-10-08T03:08:38;10.90;99.90
48744;DHT22;34538;48.836;9.174;2023-10-08T03:11:09;10.90;99.90
48744;DHT22;34538;48.836;9.174;2023-10-08T03:13:44;10.90;99.90
48744;DHT22;34538;48.836;9.174;2023-10-08T03:16:13;10.90;99.90
48744;DHT22;34538;48.836;9.174;2023-10-08T03:18:41;10.90;99.90
48744;DHT22;34538;48.836;9.174;2023-10-08T03:21:12;10.90;99.90
48744;DHT22;34538;48.836;9.174;2023-10-08T03:23:47;10.90;99.90
48744;DHT22;34538;48.836;9.174;2023-10-08T03:26:16;11.00;99.90
48744;DHT22;34538;48.836;9.174;2023-10-08T03:29:01;10.90;99.90
48744;DHT22;34538;48.836;9.174;2023-10-08T03:31:33;10.90;99.90
48744;DHT22;34538;48.836;9.174;2023-10-08T03:34:20;10.90;99.90
48744;DHT22;34538;48.836;9.174;2023-10-08T03:36:55;10.90;99.90
48744;DHT22;34538;48.836;9.174;2023-10-08T03:39:31;10.90;99.90
48744;DHT22;34538;48.836;9.174;2023-10-08T03:42:19;10.90;99.90
48744;DHT22;34538;48.836;9.174;2023-10-08T03:44:48;10.80;99.90
48744;DHT22;34538;48.836;9.174;2023-10-08T03:47:17;10.80;99.90
48744;DHT22;34538;48.836;9.174;2023-10-08T03:49:48;10.80;99.90
48744;DHT22;34538;48.836;9.174;2023-10-08T03:52:17;10.80;99.90
48744;DHT22;34538;48.836;9.174;2023-10-08T03:54:48;10.70;99.90
48744;DHT22;34538;48.836;9.174;2023-10-08T03:57:30;10.70;99.90
48744;DHT22;34538;48.836;9.174;2023-10-08T04:00:08;10.60;99.90
48744;DHT22;34538;48.836;9.174;2023-10-08T04:02:43;10.60;99.90
48744;DHT22;34538;48.836;9.174;2023-10-08T04:05:20;10.60;99.90
48744;DHT22;34538;48.836;9.174;2023-10-08T04:07:50;10.60;99.90
48744;DHT22;34538;48.836;9.174;2023-10-08T04:10:43;10.50;99.90
48744;DHT22;34538;48.836;9.174;2023-10-08T04:13:27;10.50;99.90
48744;DHT22;34538;48.836;9.174;2023-10-08T04:15:56;10.50;99.90
48744;DHT22;34538;48.836;9.174;2023-10-08T04:18:23;10.50;99.90
48744;DHT22;34538;48.836;9.174;2023-10-08T04:20:50;10.50;99.90
48744;DHT22;34538;48.836;9.174;2023-10-08T04:23:39;10.50;99.90
48744;DHT22;34538;48.836;9.174;2023-10-08T04:26:10;10.40;99.90
48744;DHT22;34538;48.836;9.174;2023-10-08T04:28:38;10.40;99.90
48744;DHT22;34538;48.836;9.174;2023-10-08T04:31:06;10.40;99.90
48744;DHT22;34538;48.836;9.174;2023-10-08T04:33:43;10.40;99.90
48744;DHT22;34538;48.836;9.174;2023-10-08T04:36:10;10.40;99.90
48744;DHT22;34538;48.836;9.174;2023-10-08T04:38:44;10.40;99.90
48744;DHT22;34538;48.836;9.174;2023-10-08T04:41:14;10.40;99.90
48744;DHT22;34538;48.836;9.174;2023-10-08T04:43:45;10.40;99.90
48744;DHT22;34538;48.836;9.174;2023-10-08T04:46:15;10.40;99.90
48744;DHT22;34538;48.836;9.174;2023-10-08T04:49:00;10.40;99.90
48744;DHT22;34538;48.836;9.174;2023-10-08T04:51:31;10.40;99.90
48744;DHT22;34538;48.836;9.174;2023-10-08T04:54:05;10.40;99.90
48744;DHT22;34538;48.836;9.174;2023-10-08T04:56:32;10.50;99.90
48744;DHT22;34538;48.836;9.174;2023-10-08T04:58:59;10.50;99.90
48744;DHT22;34538;48.836;9.174;2023-10-08T05:01:26;10.50;99.90
48744;DHT22;34538;48.836;9.174;2023-10-08T05:04:04;10.50;99.90
48744;DHT22;34538;48.836;9.174;2023-10-08T05:06:49;10.50;99.90
48744;DHT22;34538;48.836;9.174;2023-10-08T05:09:28;10.50;99.90
48744;DHT22;34538;48.836;9.174;2023-10-08T05:12:13;10.50;99.90
48744;DHT22;34538;48.836;9.174;2023-10-08T05:14:54;10.50;99.90
48744;DHT22;34538;48.836;9.174;2023-10-08T05:17:43;10.50;99.90
48744;DHT22;34538;48.836;9.174;2023-10-08T05:20:24;10.40;99.90
48744;DHT22;34538;48.836;9.174;2023-10-08T05:23:07;10.40;99.90
48744;DHT22;34538;48.836;9.174;2023-10-08T05:25:59;10.40;99.90
48744;DHT22;34538;48.836;9.174;2023-10-08T05:28:35;10.30;99.90
48744;DHT22;34538;48.836;9.174;2023-10-08T05:31:15;10.30;99.90
48744;DHT22;34538;48.836;9.174;2023-10-08T05:34:02;10.30;99.90
48744;DHT22;34538;48.836;9.174;2023-10-08T05:36:44;10.30;99.90
48744;DHT22;34538;48.836;9.174;2023-10-08T05:39:26;10.20;99.90
48744;DHT22;34538;48.836;9.174;2023-10-08T05:42:07;10.20;99.90
48744;DHT22;34538;48.836;9.174;2023-10-08T05:44:39;10.20;99.90
48744;DHT22;34538;48.836;9.174;2023-10-08T05:47:12;10.20;99.90
48744;DHT22;34538;48.836;9.174;2023-10-08T05:50:05;10.10;99.90
48744;DHT22;34538;48.836;9.174;2023-10-08T05:52:52;10.10;99.90
48744;DHT22;34538;48.836;9.174;2023-10-08T05:55:31;10.20;99.90
48744;DHT22;34538;48.836;9.174;2023-10-08T05:58:03;10.20;99.90
48744;DHT22;34538;48.836;9.174;2023-10-08T06:00:41;10.10;99.90
48744;DHT22;34538;48.836;9.174;2023-10-08T06:03:26;10.10;99.90
48744;DHT22;34538;48.836;9.174;2023-10-08T06:06:04;10.10;99.90
48744;DHT22;34538;48.836;9.174;2023-10-08T06:09:02;10.20;99.90
48744;DHT22;34538;48.836;9.174;2023-10-08T06:11:48;10.20;99.90
48744;DHT22;34538;48.836;9.174;2023-10-08T06:14:35;10.20;99.90
48744;DHT22;34538;48.836;9.174;2023-10-08T06:17:20;10.20;99.90
48744;DHT22;34538;48.836;9.174;2023-10-08T06:20:22;10.20;99.90
48744;DHT22;34538;48.836;9.174;2023-10-08T06:22:52;10.20;99.90
48744;DHT22;34538;48.836;9.174;2023-10-08T06:25:27;10.30;99.90
48744;DHT22;34538;48.836;9.174;2023-10-08T06:27:55;10.30;99.90
48744;DHT22;34538;48.836;9.174;2023-10-08T06:30:24;10.40;99.90
48744;DHT22;34538;48.836;9.174;2023-10-08T06:32:55;10.40;99.90
48744;DHT22;34538;48.836;9.174;2023-10-08T06:35:22;10.40;99.90
48744;DHT22;34538;48.836;9.174;2023-10-08T06:37:53;10.40;99.90
48744;DHT22;34538;48.836;9.174;2023-10-08T06:40:27;10.40;99.90
48744;DHT22;34538;48.836;9.174;2023-10-08T06:43:09;10.50;99.90
48744;DHT22;34538;48.836;9.174;2023-10-08T06:45:43;10.50;99.90
48744;DHT22;34538;48.836;9.174;2023-10-08T06:48:13;10.60;99.90
48744;DHT22;34538;48.836;9.174;2023-10-08T06:50:47;10.60;99.90
48744;DHT22;34538;48.836;9.174;2023-10-08T06:53:14;10.70;99.90
48744;DHT22;34538;48.836;9.174;2023-10-08T06:55:45;10.70;99.90
48744;DHT22;34538;48.836;9.174;2023-10-08T06:58:14;10.80;99.90
48744;DHT22;34538;48.836;9.174;2023-10-08T07:00:42;10.80;99.90
48744;DHT22;34538;48.836;9.174;2023-10-08T07:03:15;10.90;99.90
48744;DHT22;34538;48.836;9.174;2023-10-08T07:05:44;11.00;99.90
48744;DHT22;34538;48.836;9.174;2023-10-08T07:08:21;11.10;99.90
48744;DHT22;34538;48.836;9.174;2023-10-08T07:10:50;11.20;99.90
48744;DHT22;34538;48.836;9.174;2023-10-08T07:13:17;11.30;99.90
48744;DHT22;34538;48.836;9.174;2023-10-08T07:15:48;11.50;99.90
48744;DHT22;34538;48.836;9.174;2023-10-08T07:18:15;11.60;99.90
48744;DHT22;34538;48.836;9.174;2023-10-08T07:20:50;11.80;99.90
48744;DHT22;34538;48.836;9.174;2023-10-08T07:23:20;12.00;99.90
48744;DHT22;34538;48.836;9.174;2023-10-08T07:25:56;12.20;99.90
48744;DHT22;34538;48.836;9.174;2023-10-08T07:28:28;12.40;99.90
48744;DHT22;34538;48.836;9.174;2023-10-08T07:30:55;12.60;99.90
48744;DHT22;34538;48.836;9.174;2023-10-08T07:33:23;12.70;99.90
48744;DHT22;34538;48.836;9.174;2023-10-08T07:35:55;13.00;99.90
48744;DHT22;34538;48.836;9.174;2023-10-08T07:38:38;13.10;99.90
48744;DHT22;34538;48.836;9.174;2023-10-08T07:41:07;13.30;99.90
48744;DHT22;34538;48.836;9.174;2023-10-08T07:43:34;13.40;99.90
48744;DHT22;34538;48.836;9.174;2023-10-08T07:46:01;13.50;99.90
48744;DHT22;34538;48.836;9.174;2023-10-08T07:48:28;13.60;99.90
48744;DHT22;34538;48.836;9.174;2023-10-08T07:50:57;13.70;99.90
48744;DHT22;34538;48.836;9.174;2023-10-08T07:53:24;13.80;99.90
48744;DHT22;34538;48.836;9.174;2023-10-08T07:56:03;13.90;99.90
48744;DHT22;34538;48.836;9.174;2023-10-08T07:58:33;14.00;99.90
48744;DHT22;34538;48.836;9.174;2023-10-08T08:01:03;14.10;99.90
48744;DHT22;34538;48.836;9.174;2023-10-08T08:03:32;14.20;99.90
48744;DHT22;34538;48.836;9.174;2023-10-08T08:06:02;14.30;99.90
48744;DHT22;34538;48.836;9.174;2023-10-08T08:08:32;14.40;99.90
48744;DHT22;34538;48.836;9.174;2023-10-08T08:10:59;14.50;99.90
48744;DHT22;34538;48.836;9.174;2023-10-08T08:13:32;14.60;99.90
48744;DHT22;34538;48.836;9.174;2023-10-08T08:15:59;14.60;99.90
48744;DHT22;34538;48.836;9.174;2023-10-08T08:18:36;14.70;99.90
48744;DHT22;34538;48.836;9.174;2023-10-08T08:21:08;14.80;99.90
48744;DHT22;34538;48.836;9.174;2023-10-08T08:23:41;14.80;99.90
48744;DHT22;34538;48.836;9.174;2023-10-08T08:26:14;14.90;99.90
48744;DHT22;34538;48.836;9.174;2023-10-08T08:28:54;14.90;99.90
48744;DHT22;34538;48.836;9.174;2023-10-08T08:31:23;15.00;99.90
48744;DHT22;34538;48.836;9.174;2023-10-08T08:33:50;15.10;99.90
48744;DHT22;34538;48.836;9.174;2023-10-08T08:36:22;15.20;99.90
48744;DHT22;34538;48.836;9.174;2023-10-08T08:38:50;15.20;99.90
48744;DHT22;34538;48.836;9.174;2023-10-08T08:41:17;15.30;99.90
48744;DHT22;34538;48.836;9.174;2023-10-08T08:43:48;15.50;99.90
48744;DHT22;34538;48.836;9.174;2023-10-08T08:46:16;15.60;99.90
48744;DHT22;34538;48.836;9.174;2023-10-08T08:48:44;15.80;99.90
48744;DHT22;34538;48.836;9.174;2023-10-08T08:51:11;16.00;99.90
48744;DHT22;34538;48.836;9.174;2023-10-08T08:53:39;16.10;99.90
48744;DHT22;34538;48.836;9.174;2023-10-08T08:56:07;16.30;99.90
48744;DHT22;34538;48.836;9.174;2023-10-08T08:58:36;16.40;99.90
48744;DHT22;34538;48.836;9.174;2023-10-08T09:01:06;16.50;99.90
48744;DHT22;34538;48.836;9.174;2023-10-08T09:03:35;16.70;99.90
48744;DHT22;34538;48.836;9.174;2023-10-08T09:06:03;16.80;99.90
48744;DHT22;34538;48.836;9.174;2023-10-08T09:08:34;16.90;99.90
48744;DHT22;34538;48.836;9.174;2023-10-08T09:11:01;17.10;99.90
48744;DHT22;34538;48.836;9.174;2023-10-08T09:13:31;17.20;99.90
48744;DHT22;34538;48.836;9.174;2023-10-08T09:16:12;17.40;99.90
48744;DHT22;34538;48.836;9.174;2023-10-08T09:18:42;17.60;99.90
48744;DHT22;34538;48.836;9.174;2023-10-08T09:21:12;17.90;99.90
48744;DHT22;34538;48.836;9.174;2023-10-08T09:23:40;18.10;99.90
48744;DHT22;34538;48.836;9.174;2023-10-08T09:26:10;18.20;99.90
48744;DHT22;34538;48.836;9.174;2023-10-08T09:28:40;18.40;99.90
48744;DHT22;34538;48.836;9.174;2023-10-08T09:31:11;18.60;99.90
48744;DHT22;34538;48.836;9.174;2023-10-08T09:33:38;18.80;99.90
48744;DHT22;34538;48.836;9.174;2023-10-08T09:36:09;19.00;99.90
48744;DHT22;34538;48.836;9.174;2023-10-08T09:38:45;19.20;99.90
48744;DHT22;34538;48.836;9.174;2023-10-08T09:41:14;19.40;99.90
48744;DHT22;34538;48.836;9.174;2023-10-08T09:43:42;19.60;99.90
48744;DHT22;34538;48.836;9.174;2023-10-08T09:46:16;19.80;99.90
48744;DHT22;34538;48.836;9.174;2023-10-08T09:48:51;19.90;99.90
48744;DHT22;34538;48.836;9.174;2023-10-08T09:51:20;20.20;99.90
48744;DHT22;34538;48.836;9.174;2023-10-08T09:53:52;20.30;99.90
48744;DHT22;34538;48.836;9.174;2023-10-08T09:56:20;20.30;99.90
48744;DHT22;34538;48.836;9.174;2023-10-08T09:58:47;20.40;99.90
48744;DHT22;34538;48.836;9.174;2023-10-08T10:01:16;20.50;99.90
48744;DHT22;34538;48.836;9.174;2023-10-08T10:03:44;20.60;99.90
48744;DHT22;34538;48.836;9.174;2023-10-08T10:06:15;20.70;99.90
48744;DHT22;34538;48.836;9.174;2023-10-08T10:08:45;20.80;99.90
48744;DHT22;34538;48.836;9.174;2023-10-08T10:11:12;20.80;99.90
48744;DHT22;34538;48.836;9.174;2023-10-08T10:13:40;20.90;99.90
48744;DHT22;34538;48.836;9.174;2023-10-08T10:16:08;21.00;99.90
48744;DHT22;34538;48.836;9.174;2023-10-08T10:18:35;21.00;99.90
48744;DHT22;34538;48.836;9.174;2023-10-08T10:21:25;21.10;99.90
48744;DHT22;34538;48.836;9.174;2023-10-08T10:23:55;21.20;99.90
48744;DHT22;34538;48.836;9.174;2023-10-08T10:26:27;21.20;99.90
48744;DHT22;34538;48.836;9.174;2023-10-08T10:29:17;21.30;99.90
48744;DHT22;34538;48.836;9.174;2023-10-08T10:31:46;21.40;99.90
48744;DHT22;34538;48.836;9.174;2023-10-08T10:34:14;21.30;99.90
48744;DHT22;34538;48.836;9.174;2023-10-08T10:36:43;21.40;99.90
48744;DHT22;34538;48.836;9.174;2023-10-08T10:39:15;21.40;99.90
48744;DHT22;34538;48.836;9.174;2023-10-08T10:41:44;21.30;99.90
48744;DHT22;34538;48.836;9.174;2023-10-08T10:44:11;21.30;99.90
48744;DHT22;34538;48.836;9.174;2023-10-08T10:46:41;21.30;99.90
48744;DHT22;34538;48.836;9.174;2023-10-08T10:49:08;21.30;99.90
48744;DHT22;34538;48.836;9.174;2023-10-08T10:51:45;21.20;99.90
48744;DHT22;34538;48.836;9.174;2023-10-08T10:54:14;21.20;99.90
48744;DHT22;34538;48.836;9.174;2023-10-08T10:56:47;21.30;99.90
48744;DHT22;34538;48.836;9.174;2023-10-08T10:59:27;21.30;99.90
48744;DHT22;34538;48.836;9.174;2023-10-08T11:01:54;21.30;99.90
48744;DHT22;34538;48.836;9.174;2023-10-08T11:04:31;21.40;99.90
48744;DHT22;34538;48.836;9.174;2023-10-08T11:06:59;21.50;99.90
48744;DHT22;34538;48.836;9.174;2023-10-08T11:09:28;21.50;99.90
48744;DHT22;34538;48.836;9.174;2023-10-08T11:12:04;21.50;99.90
48744;DHT22;34538;48.836;9.174;2023-10-08T11:14:38;21.60;99.90
48744;DHT22;34538;48.836;9.174;2023-10-08T11:17:12;21.60;99.90
48744;DHT22;34538;48.836;9.174;2023-10-08T11:19:41;21.70;99.90
48744;DHT22;34538;48.836;9.174;2023-10-08T11:22:11;21.70;99.90
48744;DHT22;34538;48.836;9.174;2023-10-08T11:24:44;21.80;99.90
48744;DHT22;34538;48.836;9.174;2023-10-08T11:27:13;21.80;99.90
48744;DHT22;34538;48.836;9.174;2023-10-08T11:29:55;21.90;99.90
48744;DHT22;34538;48.836;9.174;2023-10-08T11:32:24;21.90;99.90
48744;DHT22;34538;48.836;9.174;2023-10-08T11:34:54;22.00;99.90
48744;DHT22;34538;48.836;9.174;2023-10-08T11:37:28;22.10;99.90
48744;DHT22;34538;48.836;9.174;2023-10-08T11:39:56;22.10;99.90
48744;DHT22;34538;48.836;9.174;2023-10-08T11:42:24;22.20;99.90
48744;DHT22;34538;48.836;9.174;2023-10-08T11:45:09;22.20;99.90
48744;DHT22;34538;48.836;9.174;2023-10-08T11:47:50;22.30;99.90
48744;DHT22;34538;48.836;9.174;2023-10-08T11:50:25;22.40;99.90
48744;DHT22;34538;48.836;9.174;2023-10-08T11:52:58;22.50;99.90
48744;DHT22;34538;48.836;9.174;2023-10-08T11:55:31;22.50;99.90
48744;DHT22;34538;48.836;9.174;2023-10-08T11:58:01;22.60;99.90
48744;DHT22;34538;48.836;9.174;2023-10-08T12:00:36;22.60;99.90
48744;DHT22;34538;48.836;9.174;2023-10-08T12:03:10;22.60;99.90
48744;DHT22;34538;48.836;9.174;2023-10-08T12:05:37;22.60;99.90
48744;DHT22;34538;48.836;9.174;2023-10-08T12:08:13;22.70;99.90
48744;DHT22;34538;48.836;9.174;2023-10-08T12:10:43;22.80;99.90
48744;DHT22;34538;48.836;9.174;2023-10-08T12:13:11;22.80;99.50
48744;DHT22;34538;48.836;9.174;2023-10-08T12:15:38;22.90;98.60
48744;DHT22;34538;48.836;9.174;2023-10-08T12:18:07;22.90;99.10
48744;DHT22;34538;48.836;9.174;2023-10-08T12:20:41;23.00;99.10
48744;DHT22;34538;48.836;9.174;2023-10-08T12:23:11;23.10;99.10
48744;DHT22;34538;48.836;9.174;2023-10-08T12:25:46;23.10;99.90
48744;DHT22;34538;48.836;9.174;2023-10-08T12:28:17;23.20;99.90
48744;DHT22;34538;48.836;9.174;2023-10-08T12:30:45;23.20;99.90
48744;DHT22;34538;48.836;9.174;2023-10-08T12:33:12;23.10;99.90
48744;DHT22;34538;48.836;9.174;2023-10-08T12:35:42;23.10;99.90
48744;DHT22;34538;48.836;9.174;2023-10-08T12:38:10;23.10;99.80
48744;DHT22;34538;48.836;9.174;2023-10-08T12:40:39;23.10;99.90
48744;DHT22;34538;48.836;9.174;2023-10-08T12:43:15;23.20;99.90
48744;DHT22;34538;48.836;9.174;2023-10-08T12:45:46;23.20;99.90
48744;DHT22;34538;48.836;9.174;2023-10-08T12:48:21;23.30;98.10
48744;DHT22;34538;48.836;9.174;2023-10-08T12:50:48;23.40;97.00
48744;DHT22;34538;48.836;9.174;2023-10-08T12:53:23;23.70;96.50
48744;DHT22;34538;48.836;9.174;2023-10-08T12:55:53;23.80;96.10
48744;DHT22;34538;48.836;9.174;2023-10-08T12:58:23;24.00;96.00
48744;DHT22;34538;48.836;9.174;2023-10-08T13:00:52;24.20;96.30
48744;DHT22;34538;48.836;9.174;2023-10-08T13:03:24;24.20;95.90
48744;DHT22;34538;48.836;9.174;2023-10-08T13:05:51;24.30;95.00
48744;DHT22;34538;48.836;9.174;2023-10-08T13:08:19;24.40;95.00
48744;DHT22;34538;48.836;9.174;2023-10-08T13:10:46;24.40;94.80
48744;DHT22;34538;48.836;9.174;2023-10-08T13:13:14;24.50;94.90
48744;DHT22;34538;48.836;9.174;2023-10-08T13:15:42;24.60;95.30
48744;DHT22;34538;48.836;9.174;2023-10-08T13:18:09;24.60;94.60
48744;DHT22;34538;48.836;9.174;2023-10-08T13:20:36;24.70;94.60
48744;DHT22;34538;48.836;9.174;2023-10-08T13:23:06;24.70;94.30
48744;DHT22;34538;48.836;9.174;2023-10-08T13:25:34;24.80;94.30
48744;DHT22;34538;48.836;9.174;2023-10-08T13:28:05;24.80;94.10
48744;DHT22;34538;48.836;9.174;2023-10-08T13:30:33;24.80;94.50
48744;DHT22;34538;48.836;9.174;2023-10-08T13:33:01;24.80;93.90
48744;DHT22;34538;48.836;9.174;2023-10-08T13:35:28;24.80;94.00
48744;DHT22;34538;48.836;9.174;2023-10-08T13:37:55;24.70;94.00
48744;DHT22;34538;48.836;9.174;2023-10-08T13:40:22;24.70;94.00
48744;DHT22;34538;48.836;9.174;2023-10-08T13:42:58;24.70;93.80
48744;DHT22;34538;48.836;9.174;2023-10-08T13:45:25;24.70;93.60
48744;DHT22;34538;48.836;9.174;2023-10-08T13:47:54;24.60;93.90
48744;DHT22;34538;48.836;9.174;2023-10-08T13:50:23;24.60;93.90
48744;DHT22;34538;48.836;9.174;2023-10-08T13:52:50;24.60;93.60
48744;DHT22;34538;48.836;9.174;2023-10-08T13:55:18;24.60;93.50
48744;DHT22;34538;48.836;9.174;2023-10-08T13:57:45;24.50;93.90
48744;DHT22;34538;48.836;9.174;2023-10-08T14:00:14;24.60;93.70
48744;DHT22;34538;48.836;9.174;2023-10-08T14:02:42;24.60;93.60
48744;DHT22;34538;48.836;9.174;2023-10-08T14:05:10;24.50;93.50
48744;DHT22;34538;48.836;9.174;2023-10-08T14:07:42;24.50;93.40
48744;DHT22;34538;48.836;9.174;2023-10-08T14:10:11;24.50;93.20
48744;DHT22;34538;48.836;9.174;2023-10-08T14:12:45;24.40;93.50
48744;DHT22;34538;48.836;9.174;2023-10-08T14:15:15;24.40;93.30
48744;DHT22;34538;48.836;9.174;2023-10-08T14:17:43;24.40;93.60
48744;DHT22;34538;48.836;9.174;2023-10-08T14:20:14;24.40;93.90
48744;DHT22;34538;48.836;9.174;2023-10-08T14:22:48;24.30;93.70
48744;DHT22;34538;48.836;9.174;2023-10-08T14:25:25;24.20;93.70
48744;DHT22;34538;48.836;9.174;2023-10-08T14:27:53;24.20;93.90
48744;DHT22;34538;48.836;9.174;2023-10-08T14:30:30;24.10;93.80
48744;DHT22;34538;48.836;9.174;2023-10-08T14:32:59;24.10;93.90
48744;DHT22;34538;48.836;9.174;2023-10-08T14:35:29;24.10;93.70
48744;DHT22;34538;48.836;9.174;2023-10-08T14:38:15;24.00;93.60
48744;DHT22;34538;48.836;9.174;2023-10-08T14:41:00;24.00;93.50
48744;DHT22;34538;48.836;9.174;2023-10-08T14:43:44;24.00;93.40
48744;DHT22;34538;48.836;9.174;2023-10-08T14:46:14;23.90;93.60
48744;DHT22;34538;48.836;9.174;2023-10-08T14:48:41;23.90;93.90
48744;DHT22;34538;48.836;9.174;2023-10-08T14:51:09;23.90;93.70
48744;DHT22;34538;48.836;9.174;2023-10-08T14:53:46;23.90;94.30
48744;DHT22;34538;48.836;9.174;2023-10-08T14:56:13;23.90;94.10
48744;DHT22;34538;48.836;9.174;2023-10-08T14:58:41;23.80;94.00
48744;DHT22;34538;48.836;9.174;2023-10-08T15:01:09;23.80;94.30
48744;DHT22;34538;48.836;9.174;2023-10-08T15:03:39;23.80;94.30
48744;DHT22;34538;48.836;9.174;2023-10-08T15:06:07;23.70;94.30
48744;DHT22;34538;48.836;9.174;2023-10-08T15:08:36;23.70;94.20
48744;DHT22;34538;48.836;9.174;2023-10-08T15:11:05;23.60;94.00
48744;DHT22;34538;48.836;9.174;2023-10-08T15:13:32;23.60;94.30
48744;DHT22;34538;48.836;9.174;2023-10-08T15:16:04;23.60;94.80
48744;DHT22;34538;48.836;9.174;2023-10-08T15:18:31;23.60;94.70
48744;DHT22;34538;48.836;9.174;2023-10-08T15:21:08;23.60;94.60
48744;DHT22;34538;48.836;9.174;2023-10-08T15:23:35;23.60;94.80
48744;DHT22;34538;48.836;9.174;2023-10-08T15:26:05;23.60;94.80
48744;DHT22;34538;48.836;9.174;2023-10-08T15:28:32;23.60;95.00
48744;DHT22;34538;48.836;9.174;2023-10-08T15:30:59;23.50;94.90
48744;DHT22;34538;48.836;9.174;2023-10-08T15:33:26;23.40;95.30
48744;DHT22;34538;48.836;9.174;2023-10-08T15:35:53;23.40;95.30
48744;DHT22;34538;48.836;9.174;2023-10-08T15:38:20;23.30;95.60
48744;DHT22;34538;48.836;9.174;2023-10-08T15:40:48;23.30;95.70
48744;DHT22;34538;48.836;9.174;2023-10-08T15:43:17;23.20;95.70
48744;DHT22;34538;48.836;9.174;2023-10-08T15:45:43;23.20;95.90
48744;DHT22;34538;48.836;9.174;2023-10-08T15:48:11;23.10;96.40
48744;DHT22;34538;48.836;9.174;2023-10-08T15:50:38;23.10;95.90
48744;DHT22;34538;48.836;9.174;2023-10-08T15:53:05;23.00;96.40
48744;DHT22;34538;48.836;9.174;2023-10-08T15:55:32;23.00;96.20
48744;DHT22;34538;48.836;9.174;2023-10-08T15:57:59;22.90;96.10